KCWA

Central Wisconsin Airport

Mosinee, Wisconsin, USA
METAR KCWA 221505Z 00000KT 10SM SCT010 16/13 A3006
Observed Flight Rules
May-22 @ 15:05 UTC (46 minutes ago) Visual Flight Rules
Visibility Clouds
10 miles
  • Scattered at 1,000' AGL
Temperatures Readings
Current 16°C / 61°F
Dewpoint 13°C / 55°F
Humidity 83%
Altimeter 30.06" Hg
Pressure 1018 hPa
Elevation 389
METAR KCWA 221505Z 00000KT 10SM SCT010 16/13 A3006
Observed Flight Rules
May-22 @ 15:05 UTC
(46 minutes ago)
VFR
Clouds
  • Scattered at 1,000' AGL
Temperature Dewpoint
16°C / 61°F 13°C / 55°F
Humidity Altimeter Pressure
83% 30.06" Hg 1018 hPa